Time;durP1;ratioP1;P1;durP2;ratioP2;P2;SDS_P1;SDS_P2;PMS_P1;PMS_P2;Temp;Humidity;BMP_temperature;BMP_pressure;BME280_temperature;BME280_humidity;BME280_pressure;Samples;Min_cycle;Max_cycle;Signal;HPM_P1;HPM_P2
2020/12/24 00:00:47;;;;;;;4.53;1.92;;;8.00;95.40;;;;;;5050660;28;20530;-71
2020/12/24 00:03:13;;;;;;;3.42;1.80;;;8.00;95.30;;;;;;5054863;28;20427;-71
2020/12/24 00:05:40;;;;;;;3.30;1.85;;;8.00;95.40;;;;;;5050499;28;20434;-71
2020/12/24 00:08:09;;;;;;;3.20;1.70;;;8.00;95.50;;;;;;5054157;28;20419;-71
2020/12/24 00:10:35;;;;;;;3.85;2.00;;;7.90;95.50;;;;;;5038877;28;20505;-71
2020/12/24 00:13:01;;;;;;;2.33;1.70;;;7.90;95.60;;;;;;5033921;28;20456;-70
2020/12/24 00:15:28;;;;;;;3.50;1.80;;;7.90;95.80;;;;;;5036441;28;20776;-71
2020/12/24 00:17:57;;;;;;;3.13;1.70;;;7.90;95.80;;;;;;5051772;28;20457;-71
2020/12/24 00:20:23;;;;;;;3.30;1.70;;;7.90;95.80;;;;;;5055265;28;20463;-71
2020/12/24 00:22:49;;;;;;;2.53;1.85;;;7.90;96.00;;;;;;5091548;28;20463;-71
2020/12/24 00:25:20;;;;;;;3.70;2.00;;;7.80;96.10;;;;;;5068071;28;20857;-70
2020/12/24 00:27:47;;;;;;;6.05;2.55;;;7.80;96.20;;;;;;5071537;28;20404;-71
2020/12/24 00:30:13;;;;;;;14.87;6.97;;;7.80;96.30;;;;;;5071646;28;20399;-71
2020/12/24 00:32:39;;;;;;;21.20;11.93;;;7.80;96.20;;;;;;5049031;28;20424;-71
2020/12/24 00:35:06;;;;;;;26.20;16.25;;;7.90;96.30;;;;;;5051377;28;20413;-70
2020/12/24 00:37:32;;;;;;;19.43;11.40;;;7.90;95.80;;;;;;5063934;28;20419;-71
2020/12/24 00:39:59;;;;;;;10.57;6.50;;;7.90;95.90;;;;;;5071209;28;20459;-71
2020/12/24 00:42:25;;;;;;;6.82;4.43;;;7.90;96.00;;;;;;5055943;28;20401;-71
2020/12/24 00:44:52;;;;;;;8.65;4.30;;;7.90;96.10;;;;;;5033769;28;20443;-71
2020/12/24 00:47:18;;;;;;;6.40;3.92;;;7.80;96.10;;;;;;5056932;28;20447;-71
2020/12/24 00:49:47;;;;;;;7.30;4.10;;;7.80;96.10;;;;;;5053614;28;20412;-70
2020/12/24 00:52:13;;;;;;;5.68;3.90;;;7.80;96.10;;;;;;5067584;28;20412;-71
2020/12/24 00:54:40;;;;;;;6.13;4.00;;;7.90;96.00;;;;;;5053412;28;20924;-71
2020/12/24 00:57:06;;;;;;;9.63;4.38;;;7.90;96.10;;;;;;5048639;28;20427;-70
2020/12/24 00:59:34;;;;;;;6.50;4.20;;;7.90;96.10;;;;;;5059263;28;20403;-71
2020/12/24 01:02:01;;;;;;;7.07;4.10;;;7.90;96.00;;;;;;5070690;28;20485;-71
2020/12/24 01:04:27;;;;;;;7.00;4.00;;;7.90;95.90;;;;;;5067050;28;20403;-71
2020/12/24 01:06:54;;;;;;;7.63;4.20;;;8.00;95.90;;;;;;5053190;28;20407;-71
2020/12/24 01:09:20;;;;;;;6.20;3.80;;;8.10;96.00;;;;;;5048796;28;20408;-71
2020/12/24 01:11:47;;;;;;;7.60;3.45;;;8.20;95.50;;;;;;5070417;28;20473;-71
2020/12/24 01:14:13;;;;;;;6.75;3.75;;;8.30;95.30;;;;;;5037673;28;20443;-71
2020/12/24 01:16:40;;;;;;;7.63;3.67;;;8.20;95.40;;;;;;5033348;28;20474;-71
2020/12/24 01:19:06;;;;;;;6.15;3.72;;;8.20;95.60;;;;;;5056038;28;20794;-71
2020/12/24 01:21:35;;;;;;;6.43;3.60;;;8.20;95.80;;;;;;5070692;28;20411;-71
2020/12/24 01:24:01;;;;;;;6.88;3.90;;;8.10;95.90;;;;;;5062045;28;20474;-70
2020/12/24 01:26:27;;;;;;;7.00;4.00;;;8.10;96.00;;;;;;5050627;28;20402;-70
2020/12/24 01:28:57;;;;;;;8.60;4.10;;;8.10;96.10;;;;;;5047968;28;20471;-71
2020/12/24 01:31:23;;;;;;;8.60;4.10;;;8.00;96.10;;;;;;5032742;28;20401;-71
2020/12/24 01:33:49;;;;;;;8.15;3.60;;;8.10;96.20;;;;;;5032711;28;20467;-71
2020/12/24 01:36:23;;;;;;;8.40;4.03;;;8.20;96.20;;;;;;5048653;28;20440;-71
2020/12/24 01:38:49;;;;;;;6.57;3.17;;;8.20;95.80;;;;;;5052921;28;20443;-71
2020/12/24 01:41:16;;;;;;;3.77;2.80;;;8.30;95.80;;;;;;5032064;28;20488;-70
2020/12/24 01:43:43;;;;;;;5.22;2.95;;;8.50;95.90;;;;;;5050329;28;20440;-71
2020/12/24 01:46:09;;;;;;;5.38;2.60;;;8.70;94.90;;;;;;5048058;28;20433;-71
2020/12/24 01:48:35;;;;;;;7.80;2.87;;;8.60;95.20;;;;;;5050244;28;20436;-70
2020/12/24 01:51:02;;;;;;;4.43;2.58;;;8.50;95.30;;;;;;5057313;28;20447;-71
2020/12/24 01:53:31;;;;;;;6.55;2.50;;;8.60;95.40;;;;;;5070479;28;20412;-71
2020/12/24 01:55:57;;;;;;;5.28;2.83;;;8.60;95.50;;;;;;5048894;28;20451;-71
2020/12/24 01:58:26;;;;;;;5.68;2.70;;;8.60;95.40;;;;;;5070185;28;20423;-71
2020/12/24 02:00:52;;;;;;;4.57;2.70;;;8.70;95.40;;;;;;5051183;28;20435;-71
2020/12/24 02:03:19;;;;;;;4.07;2.40;;;8.70;95.40;;;;;;5052694;28;20824;-71
2020/12/24 02:05:45;;;;;;;3.80;2.40;;;8.70;95.40;;;;;;5067578;28;20407;-71
2020/12/24 02:08:15;;;;;;;4.27;2.30;;;8.90;95.50;;;;;;5031731;28;20413;-71
2020/12/24 02:10:41;;;;;;;4.90;2.10;;;9.20;94.90;;;;;;5050141;28;20479;-71
2020/12/24 02:13:13;;;;;;;3.15;2.28;;;9.40;94.30;;;;;;5063641;28;20878;-71
2020/12/24 02:15:39;;;;;;;4.00;2.30;;;9.40;94.30;;;;;;5069871;28;20921;-71
2020/12/24 02:18:05;;;;;;;4.87;2.40;;;9.40;94.10;;;;;;5066294;28;20501;-71
2020/12/24 02:20:33;;;;;;;4.03;2.20;;;9.30;94.20;;;;;;5070263;28;20431;-71
2020/12/24 02:22:59;;;;;;;3.72;2.33;;;9.50;94.10;;;;;;5054835;28;20412;-71
2020/12/24 02:25:25;;;;;;;4.20;2.30;;;9.40;94.10;;;;;;5049104;28;20535;-71
2020/12/24 02:27:52;;;;;;;4.45;2.40;;;9.30;94.30;;;;;;5049060;28;20432;-70
2020/12/24 02:30:18;;;;;;;5.30;2.50;;;9.20;94.60;;;;;;5069816;28;20408;-71
2020/12/24 02:32:47;;;;;;;5.68;2.50;;;9.20;94.70;;;;;;5048302;28;20443;-71
2020/12/24 02:35:13;;;;;;;4.40;2.67;;;9.10;94.90;;;;;;5069766;28;20431;-71
2020/12/24 02:37:42;;;;;;;4.33;2.43;;;9.10;95.00;;;;;;5049544;28;20492;-71
2020/12/24 02:40:11;;;;;;;5.40;2.63;;;9.00;95.00;;;;;;5052363;28;20404;-71
2020/12/24 02:42:37;;;;;;;4.72;2.50;;;9.00;95.20;;;;;;5069957;28;20469;-71
2020/12/24 02:45:05;;;;;;;5.75;2.40;;;9.00;95.30;;;;;;5047734;28;20404;-71
2020/12/24 02:47:31;;;;;;;3.20;2.40;;;9.20;95.20;;;;;;5069855;28;20465;-71
2020/12/24 02:49:58;;;;;;;4.25;2.53;;;9.30;94.60;;;;;;5048079;28;20856;-71
2020/12/24 02:52:25;;;;;;;4.07;2.42;;;9.20;94.70;;;;;;5072427;28;20468;-71
2020/12/24 02:54:52;;;;;;;3.03;2.30;;;9.20;94.90;;;;;;5069186;28;20416;-71
2020/12/24 02:57:18;;;;;;;4.20;2.60;;;9.20;94.90;;;;;;5073264;28;20450;-71
2020/12/24 03:00:06;;;;;;;4.82;2.40;;;9.20;94.90;;;;;;5069347;28;20465;-71
2020/12/24 03:02:36;;;;;;;6.60;2.90;;;9.10;95.20;;;;;;5073305;28;20426;-71
2020/12/24 03:05:04;;;;;;;9.95;4.65;;;9.10;95.20;;;;;;5051872;28;20447;-71
2020/12/24 03:07:31;;;;;;;11.52;6.85;;;9.10;95.20;;;;;;5055634;28;20432;-71
2020/12/24 03:10:00;;;;;;;6.00;3.15;;;9.20;95.10;;;;;;5048319;28;20924;-70
2020/12/24 03:12:27;;;;;;;5.27;3.30;;;9.10;95.10;;;;;;5051886;28;20425;-71
2020/12/24 03:14:55;;;;;;;10.38;6.03;;;9.20;95.00;;;;;;5052525;28;20852;-71
2020/12/24 03:17:22;;;;;;;9.57;4.95;;;9.20;95.00;;;;;;5055134;28;20818;-71
2020/12/24 03:19:51;;;;;;;8.65;5.07;;;9.20;94.90;;;;;;5072162;28;20412;-71
2020/12/24 03:22:17;;;;;;;11.52;6.25;;;9.20;95.00;;;;;;5071504;28;20412;-71
2020/12/24 03:24:43;;;;;;;11.40;5.70;;;9.40;94.40;;;;;;5072958;28;20423;-71
2020/12/24 03:27:10;;;;;;;16.20;6.97;;;9.30;94.60;;;;;;5068737;28;20729;-71
2020/12/24 03:29:36;;;;;;;14.02;6.70;;;9.30;94.60;;;;;;5072642;28;20485;-71
2020/12/24 03:32:02;;;;;;;13.87;7.13;;;9.20;94.70;;;;;;5051426;28;20424;-71
2020/12/24 03:34:29;;;;;;;13.57;6.95;;;9.10;94.80;;;;;;5055021;28;20706;-71
2020/12/24 03:36:55;;;;;;;13.30;6.47;;;9.10;95.00;;;;;;5051249;28;20469;-71
2020/12/24 03:39:22;;;;;;;20.48;6.95;;;9.00;95.10;;;;;;5054968;28;20735;-71
2020/12/24 03:41:48;;;;;;;12.73;6.33;;;9.10;95.00;;;;;;5068525;28;20436;-71
2020/12/24 03:44:17;;;;;;;13.38;6.03;;;9.10;95.00;;;;;;5054784;28;20444;-71
2020/12/24 03:46:44;;;;;;;15.55;6.38;;;9.00;95.20;;;;;;5048188;28;20467;-71
2020/12/24 03:49:10;;;;;;;12.45;6.18;;;9.00;95.20;;;;;;5052213;28;20496;-71
2020/12/24 03:51:36;;;;;;;13.18;6.40;;;8.90;95.40;;;;;;5033438;28;20787;-71
2020/12/24 03:54:03;;;;;;;12.80;6.57;;;8.90;95.50;;;;;;5070304;28;20460;-71
2020/12/24 03:56:29;;;;;;;12.53;6.40;;;8.90;95.60;;;;;;5054467;28;20407;-71
2020/12/24 03:58:58;;;;;;;13.95;7.05;;;8.80;95.70;;;;;;5055995;28;20866;-71
2020/12/24 04:01:27;;;;;;;14.95;6.10;;;8.80;95.80;;;;;;5055051;28;20411;-71
2020/12/24 04:03:53;;;;;;;9.93;5.40;;;8.80;95.80;;;;;;5046954;28;20429;-71
2020/12/24 04:06:20;;;;;;;9.68;5.40;;;8.80;95.70;;;;;;5051725;28;20471;-71
2020/12/24 04:08:46;;;;;;;9.10;5.15;;;8.80;95.80;;;;;;5059020;28;20411;-71
2020/12/24 04:11:13;;;;;;;10.43;5.15;;;8.80;96.00;;;;;;5071534;28;20889;-71
2020/12/24 04:13:39;;;;;;;10.20;4.90;;;8.80;96.10;;;;;;5050702;28;20415;-71
2020/12/24 04:16:06;;;;;;;10.25;5.10;;;8.90;96.20;;;;;;5071898;28;20534;-71
2020/12/24 04:18:32;;;;;;;7.07;4.37;;;9.10;95.40;;;;;;5050810;28;20431;-71
2020/12/24 04:20:59;;;;;;;9.38;4.57;;;9.20;95.10;;;;;;5071536;28;20786;-71
2020/12/24 04:23:25;;;;;;;6.60;4.00;;;9.20;95.10;;;;;;5070023;28;20473;-71
2020/12/24 04:25:51;;;;;;;6.82;4.15;;;9.20;95.00;;;;;;5052598;28;20740;-71
2020/12/24 04:28:18;;;;;;;6.43;3.70;;;9.40;95.10;;;;;;5053938;28;20404;-71
2020/12/24 04:30:44;;;;;;;6.80;3.60;;;9.50;94.80;;;;;;5047109;28;20421;-71
2020/12/24 04:33:12;;;;;;;11.85;7.35;;;9.40;95.00;;;;;;5051461;28;20503;-71
2020/12/24 04:35:39;;;;;;;12.40;7.22;;;9.30;95.20;;;;;;5048424;28;20467;-70
2020/12/24 04:38:06;;;;;;;18.75;9.75;;;9.20;95.30;;;;;;5050594;28;20429;-71
2020/12/24 04:40:35;;;;;;;20.40;11.50;;;9.10;95.50;;;;;;5057993;28;20415;-71
2020/12/24 04:43:05;;;;;;;17.25;11.07;;;9.10;95.60;;;;;;5071247;28;20427;-71
2020/12/24 04:45:35;;;;;;;15.30;9.07;;;9.20;95.30;;;;;;5046567;28;20425;-71
2020/12/24 04:48:01;;;;;;;14.10;7.07;;;9.20;95.30;;;;;;5050933;28;20482;-71
2020/12/24 04:50:30;;;;;;;8.13;4.68;;;9.30;95.40;;;;;;5052124;28;20786;-71
2020/12/24 04:52:59;;;;;;;8.68;3.38;;;9.50;94.90;;;;;;5053406;28;20832;-71
2020/12/24 04:55:30;;;;;;;5.70;3.58;;;9.60;94.40;;;;;;5067642;28;20768;-71
2020/12/24 04:58:00;;;;;;;7.70;2.90;;;9.50;94.50;;;;;;5053429;28;20508;-71
2020/12/24 05:00:27;;;;;;;4.47;2.83;;;9.40;94.70;;;;;;5037786;28;20474;-71
2020/12/24 05:03:14;;;;;;;7.15;2.70;;;9.30;94.80;;;;;;5067096;28;20407;-71
2020/12/24 05:05:43;;;;;;;4.90;2.40;;;9.40;95.10;;;;;;5053254;28;20469;-71
2020/12/24 05:08:09;;;;;;;5.55;2.63;;;9.50;95.00;;;;;;5066249;28;20443;-70
2020/12/24 05:10:38;;;;;;;4.60;2.10;;;9.60;94.40;;;;;;5070993;28;20818;-71
2020/12/24 05:13:20;;;;;;;3.15;2.17;;;9.60;94.60;;;;;;5063571;28;20457;-71
2020/12/24 05:15:47;;;;;;;5.35;2.38;;;9.50;94.50;;;;;;5069683;28;20867;-71
2020/12/24 05:18:17;;;;;;;3.63;2.40;;;9.40;94.60;;;;;;5067160;28;20493;-70
2020/12/24 05:20:45;;;;;;;6.43;2.78;;;9.30;94.80;;;;;;5053377;28;20425;-71
2020/12/24 05:23:20;;;;;;;4.47;2.53;;;9.30;94.90;;;;;;5049444;28;20465;-71
2020/12/24 05:25:49;;;;;;;3.90;2.35;;;9.40;94.90;;;;;;5053157;28;20408;-71
2020/12/24 05:28:26;;;;;;;3.17;2.00;;;9.40;94.70;;;;;;5048547;28;20416;-70
2020/12/24 05:30:53;;;;;;;3.75;2.08;;;9.40;94.80;;;;;;5070276;28;20407;-70
2020/12/24 05:33:29;;;;;;;4.32;1.90;;;9.50;94.50;;;;;;5049195;28;20470;-70
2020/12/24 05:36:18;;;;;;;3.70;1.50;;;9.50;94.40;;;;;;5069439;28;20891;-70
2020/12/24 05:38:46;;;;;;;4.05;2.22;;;9.50;94.40;;;;;;5067494;28;20458;-70
2020/12/24 05:41:28;;;;;;;3.13;2.20;;;9.50;94.40;;;;;;5070363;28;20431;-70
2020/12/24 05:43:59;;;;;;;4.03;2.20;;;9.50;94.50;;;;;;5066960;28;20845;-70
2020/12/24 05:46:38;;;;;;;3.63;2.03;;;9.60;94.60;;;;;;5070417;28;20466;-70
2020/12/24 05:49:20;;;;;;;4.97;1.98;;;9.50;94.80;;;;;;5066005;28;20504;-68
2020/12/24 05:52:06;;;;;;;3.38;2.00;;;9.50;94.90;;;;;;5070460;28;20399;-68
2020/12/24 05:54:35;;;;;;;4.70;2.17;;;9.50;95.20;;;;;;5066059;28;20423;-68
2020/12/24 05:57:02;;;;;;;3.13;1.92;;;9.40;95.30;;;;;;5070268;28;20447;-68
2020/12/24 05:59:30;;;;;;;4.55;1.60;;;9.40;95.50;;;;;;5066423;28;20498;-68
2020/12/24 06:02:10;;;;;;;3.58;1.90;;;9.40;95.50;;;;;;5053014;28;20408;-70
2020/12/24 06:04:45;;;;;;;6.18;1.75;;;9.40;95.40;;;;;;5067012;28;20469;-68
2020/12/24 06:07:18;;;;;;;5.37;1.73;;;9.60;95.10;;;;;;5052378;28;20461;-68
2020/12/24 06:09:49;;;;;;;2.97;1.70;;;9.50;95.30;;;;;;5048132;28;20401;-68
2020/12/24 06:12:29;;;;;;;3.07;1.60;;;9.50;95.10;;;;;;5069686;28;20458;-68
2020/12/24 06:15:00;;;;;;;2.97;1.50;;;9.50;95.30;;;;;;5066607;28;20404;-68
2020/12/24 06:17:35;;;;;;;4.65;1.83;;;9.40;95.30;;;;;;5051389;28;20431;-68
2020/12/24 06:20:03;;;;;;;4.65;2.33;;;9.30;95.60;;;;;;5049823;28;20403;-68
2020/12/24 06:22:30;;;;;;;8.23;2.63;;;9.40;95.40;;;;;;5032858;28;20415;-68
2020/12/24 06:25:00;;;;;;;4.82;2.13;;;9.30;95.60;;;;;;5050415;28;20758;-68
2020/12/24 06:27:40;;;;;;;3.70;2.00;;;9.20;95.90;;;;;;5067445;28;20941;-68
2020/12/24 06:30:12;;;;;;;3.28;2.20;;;9.20;96.00;;;;;;5056276;28;20404;-69
2020/12/24 06:32:45;;;;;;;5.90;2.42;;;9.10;96.30;;;;;;5070174;28;20490;-69
2020/12/24 06:35:19;;;;;;;6.20;2.88;;;9.10;96.30;;;;;;5073821;28;20423;-69
2020/12/24 06:37:46;;;;;;;4.45;2.35;;;9.10;96.20;;;;;;5070002;28;20424;-69
2020/12/24 06:40:29;;;;;;;6.32;3.13;;;9.10;96.30;;;;;;5073383;28;20836;-69
2020/12/24 06:42:56;;;;;;;4.43;2.95;;;9.10;96.30;;;;;;5070201;28;20942;-68
2020/12/24 06:45:30;;;;;;;5.10;3.40;;;9.10;96.30;;;;;;5073490;28;20500;-69
2020/12/24 06:48:18;;;;;;;6.00;3.92;;;9.00;96.50;;;;;;5069800;28;20408;-68
2020/12/24 06:50:46;;;;;;;6.20;4.10;;;9.00;96.70;;;;;;5073014;28;20399;-69
2020/12/24 06:53:19;;;;;;;5.43;3.72;;;9.00;96.80;;;;;;5070070;28;20458;-69
2020/12/24 06:56:19;;;;;;;5.57;3.70;;;9.00;96.60;;;;;;5073530;28;20408;-69
2020/12/24 06:58:57;;;;;;;5.65;3.53;;;8.90;96.80;;;;;;5067955;28;20435;-69
2020/12/24 07:01:35;;;;;;;6.22;3.08;;;8.90;96.90;;;;;;5052069;28;20911;-69
2020/12/24 07:04:06;;;;;;;5.95;2.80;;;9.00;96.60;;;;;;5063274;28;20430;-69
2020/12/24 07:06:45;;;;;;;49.13;23.92;;;9.00;96.70;;;;;;5054550;28;20427;-69
2020/12/24 07:09:31;;;;;;;27.63;13.27;;;9.00;96.80;;;;;;5069649;28;20439;-69
2020/12/24 07:11:59;;;;;;;11.27;6.30;;;9.00;96.50;;;;;;5056131;28;20495;-69
2020/12/24 07:14:32;;;;;;;7.75;4.05;;;8.90;96.70;;;;;;5048722;28;20424;-69
2020/12/24 07:17:11;;;;;;;5.28;3.38;;;8.90;96.90;;;;;;5052053;28;20518;-69
2020/12/24 07:19:48;;;;;;;4.40;2.42;;;8.90;97.00;;;;;;5051162;28;20427;-69
2020/12/24 07:22:18;;;;;;;4.35;2.60;;;8.90;97.00;;;;;;5073510;28;20407;-69
2020/12/24 07:24:55;;;;;;;3.75;2.45;;;8.90;96.90;;;;;;5069534;28;20404;-69
2020/12/24 07:27:22;;;;;;;4.90;2.47;;;9.00;96.70;;;;;;5054912;28;20450;-69
2020/12/24 07:29:48;;;;;;;3.92;2.00;;;9.10;96.30;;;;;;5044379;28;20467;-69
2020/12/24 07:32:17;;;;;;;3.92;1.90;;;9.30;96.10;;;;;;5062382;28;20503;-69
2020/12/24 07:34:48;;;;;;;4.18;2.20;;;9.10;96.00;;;;;;5051533;28;20416;-69
2020/12/24 07:37:14;;;;;;;4.45;2.20;;;9.00;96.50;;;;;;5072532;28;20465;-69
2020/12/24 07:39:55;;;;;;;3.53;2.30;;;9.10;96.40;;;;;;5050772;28;20439;-69
2020/12/24 07:42:26;;;;;;;4.40;2.57;;;9.10;96.30;;;;;;5053513;28;20416;-69
2020/12/24 07:44:53;;;;;;;6.13;3.08;;;9.00;96.50;;;;;;5051445;28;20443;-69
2020/12/24 07:47:19;;;;;;;6.32;3.17;;;9.00;96.50;;;;;;5072245;28;20404;-69
2020/12/24 07:49:52;;;;;;;5.32;3.15;;;9.20;96.30;;;;;;5072317;28;20732;-69
2020/12/24 07:52:19;;;;;;;6.25;3.40;;;9.00;96.20;;;;;;5068646;28;20438;-69
2020/12/24 07:54:45;;;;;;;5.10;3.08;;;9.00;96.40;;;;;;5072159;28;20407;-69
2020/12/24 07:57:20;;;;;;;4.63;2.40;;;8.90;96.40;;;;;;5068439;28;20871;-69
2020/12/24 07:59:47;;;;;;;5.28;2.65;;;9.00;96.40;;;;;;5062065;28;20405;-69
2020/12/24 08:02:14;;;;;;;6.32;2.00;;;8.90;96.50;;;;;;5062010;28;20457;-69
2020/12/24 08:04:40;;;;;;;4.40;2.20;;;8.90;96.60;;;;;;5072177;28;20410;-69
2020/12/24 08:07:07;;;;;;;5.85;1.80;;;8.80;96.60;;;;;;5050383;28;20458;-69
2020/12/24 08:09:34;;;;;;;2.63;1.58;;;8.90;96.70;;;;;;5070024;28;20431;-69
2020/12/24 08:12:00;;;;;;;3.80;1.52;;;8.90;96.70;;;;;;5062497;28;20966;-69
2020/12/24 08:14:31;;;;;;;4.90;1.30;;;8.90;96.10;;;;;;5052108;28;20475;-69
2020/12/24 08:17:26;;;;;;;1.83;1.20;;;8.90;95.90;;;;;;5052135;28;20404;-69
2020/12/24 08:20:12;;;;;;;2.60;1.10;;;8.90;95.40;;;;;;5050927;28;20481;-69
2020/12/24 08:22:38;;;;;;;1.27;1.00;;;9.00;95.30;;;;;;5037641;28;20500;-69
2020/12/24 08:25:07;;;;;;;1.70;0.90;;;9.00;94.90;;;;;;5069963;28;20416;-69
2020/12/24 08:27:34;;;;;;;2.70;1.15;;;8.90;94.40;;;;;;5050619;28;20790;-69
2020/12/24 08:30:01;;;;;;;4.25;1.00;;;8.90;94.20;;;;;;5071319;28;20400;-69
2020/12/24 08:32:29;;;;;;;3.30;1.00;;;8.90;93.70;;;;;;5069577;28;20408;-69
2020/12/24 08:35:07;;;;;;;3.42;1.10;;;8.90;93.70;;;;;;5046076;28;20585;-69
2020/12/24 08:37:34;;;;;;;1.58;0.90;;;9.00;93.50;;;;;;5052794;28;20772;-68
2020/12/24 08:40:17;;;;;;;2.30;1.10;;;8.90;93.30;;;;;;5067777;28;21126;-69
2020/12/24 08:42:47;;;;;;;1.60;1.00;;;8.80;93.60;;;;;;5054072;28;20447;-69
2020/12/24 08:45:16;;;;;;;2.03;1.13;;;8.90;93.50;;;;;;5068121;28;20432;-69
2020/12/24 08:47:45;;;;;;;1.85;1.10;;;8.80;93.60;;;;;;5071268;28;20426;-69
2020/12/24 08:50:13;;;;;;;1.50;1.10;;;8.80;93.70;;;;;;5067651;28;20494;-69
2020/12/24 08:52:43;;;;;;;2.40;1.30;;;8.70;94.00;;;;;;5071037;28;20404;-69
2020/12/24 08:55:12;;;;;;;2.45;1.20;;;8.60;94.20;;;;;;5067692;28;20411;-69
2020/12/24 08:57:41;;;;;;;1.67;1.20;;;8.70;94.00;;;;;;5070704;28;20489;-69
2020/12/24 09:00:12;;;;;;;2.97;1.42;;;8.80;93.90;;;;;;5049710;28;20492;-69
2020/12/24 09:02:39;;;;;;;2.00;1.38;;;8.70;94.20;;;;;;5070678;28;20407;-69
2020/12/24 09:05:09;;;;;;;2.03;1.07;;;8.70;94.30;;;;;;5049768;28;20508;-69
2020/12/24 09:07:39;;;;;;;2.45;1.40;;;8.80;94.20;;;;;;5053349;28;20412;-69
2020/12/24 09:10:13;;;;;;;3.03;1.20;;;8.70;94.10;;;;;;5067139;28;20416;-69
2020/12/24 09:12:42;;;;;;;2.58;1.40;;;8.70;94.10;;;;;;5069670;28;20419;-69
2020/12/24 09:15:13;;;;;;;2.90;1.17;;;8.60;94.10;;;;;;5065203;28;20491;-69
2020/12/24 09:17:54;;;;;;;2.00;1.17;;;8.70;94.30;;;;;;5049528;28;20425;-69
2020/12/24 09:20:31;;;;;;;3.40;1.20;;;8.70;94.20;;;;;;5063821;28;20415;-69
2020/12/24 09:23:03;;;;;;;1.00;0.82;;;8.70;94.20;;;;;;5053226;28;20465;-69
2020/12/24 09:25:35;;;;;;;2.50;1.27;;;8.70;94.00;;;;;;5068140;28;20403;-69
2020/12/24 09:28:16;;;;;;;2.47;1.10;;;8.80;93.80;;;;;;5032981;28;20802;-69
2020/12/24 09:30:43;;;;;;;3.47;1.90;;;8.70;93.80;;;;;;5050342;28;20791;-68
2020/12/24 09:33:09;;;;;;;3.15;1.40;;;8.70;93.70;;;;;;5067454;28;20815;-69
2020/12/24 09:35:38;;;;;;;3.88;1.92;;;8.70;93.90;;;;;;5052951;28;20563;-69
2020/12/24 09:38:05;;;;;;;4.22;2.10;;;8.80;93.90;;;;;;5049489;28;20466;-69
2020/12/24 09:40:33;;;;;;;3.70;2.20;;;8.70;94.20;;;;;;5069476;28;20511;-69
2020/12/24 09:43:00;;;;;;;2.97;1.52;;;8.70;94.10;;;;;;5049054;28;20890;-69
2020/12/24 09:45:28;;;;;;;2.45;1.50;;;8.80;94.10;;;;;;5069163;28;20426;-68
2020/12/24 09:47:55;;;;;;;4.03;1.40;;;8.80;93.90;;;;;;5066822;28;20942;-69
2020/12/24 09:50:24;;;;;;;1.80;1.10;;;8.90;93.70;;;;;;5052867;28;20496;-69
2020/12/24 09:52:50;;;;;;;1.33;1.10;;;8.90;93.70;;;;;;5059764;28;20471;-69
2020/12/24 09:55:16;;;;;;;2.77;1.40;;;8.80;93.80;;;;;;5049973;28;20405;-69
2020/12/24 09:57:45;;;;;;;6.68;2.72;;;8.70;94.20;;;;;;5050717;28;20454;-69
2020/12/24 10:00:14;;;;;;;1.38;0.73;;;8.60;94.00;;;;;;5067828;28;20485;-68
2020/12/24 10:02:41;;;;;;;2.60;1.20;;;8.70;91.90;;;;;;5052462;28;20395;-69
2020/12/24 10:05:08;;;;;;;2.47;1.40;;;8.70;92.00;;;;;;5074623;28;20404;-69
2020/12/24 10:07:37;;;;;;;1.98;1.08;;;8.70;91.00;;;;;;5074213;28;20407;-69
2020/12/24 10:10:04;;;;;;;2.45;0.98;;;8.70;91.30;;;;;;5070512;28;20408;-69
2020/12/24 10:12:31;;;;;;;2.15;0.90;;;8.60;91.60;;;;;;5073980;28;20462;-69
2020/12/24 10:15:00;;;;;;;1.70;1.10;;;8.50;91.90;;;;;;5037740;28;20487;-68
2020/12/24 10:17:29;;;;;;;2.83;0.90;;;8.60;92.30;;;;;;5054165;28;20427;-68
2020/12/24 10:19:58;;;;;;;2.22;0.80;;;8.60;91.50;;;;;;5062816;28;20468;-69
2020/12/24 10:22:27;;;;;;;2.38;0.70;;;8.70;90.90;;;;;;5056380;28;20403;-69
2020/12/24 10:24:53;;;;;;;3.17;0.80;;;8.90;90.20;;;;;;5052405;28;20445;-68
2020/12/24 10:27:20;;;;;;;2.28;0.77;;;8.80;88.80;;;;;;5074095;28;20536;-69
2020/12/24 10:29:47;;;;;;;1.85;0.95;;;8.80;90.00;;;;;;5070378;28;20894;-69
2020/12/24 10:32:18;;;;;;;2.75;0.95;;;8.80;90.00;;;;;;5073894;28;20476;-68
2020/12/24 10:34:45;;;;;;;3.17;0.87;;;8.80;86.60;;;;;;5069776;28;20450;-68
2020/12/24 10:37:11;;;;;;;1.75;0.80;;;8.70;84.00;;;;;;5056188;28;20458;-68
2020/12/24 10:39:38;;;;;;;3.42;0.75;;;8.70;82.80;;;;;;5054793;28;20466;-68
2020/12/24 10:42:04;;;;;;;1.88;0.65;;;8.60;83.00;;;;;;5054562;28;20903;-68
2020/12/24 10:44:31;;;;;;;2.40;0.93;;;8.60;84.00;;;;;;5072858;28;20447;-68
2020/12/24 10:46:58;;;;;;;1.08;0.60;;;8.50;81.90;;;;;;5069799;28;20403;-68
2020/12/24 10:49:25;;;;;;;1.52;0.57;;;8.40;82.50;;;;;;5072854;28;20501;-68
2020/12/24 10:51:54;;;;;;;1.83;0.68;;;8.30;83.00;;;;;;5049984;28;20484;-68
2020/12/24 10:54:20;;;;;;;3.45;0.90;;;8.30;83.30;;;;;;5073277;28;21321;-68
2020/12/24 10:56:50;;;;;;;1.92;0.80;;;8.20;84.10;;;;;;5069994;28;20473;-68
2020/12/24 10:59:17;;;;;;;1.90;0.68;;;8.20;83.90;;;;;;5067251;28;20433;-68
2020/12/24 11:01:52;;;;;;;5.67;0.90;;;8.10;82.20;;;;;;5058935;28;20447;-68
2020/12/24 11:04:21;;;;;;;2.13;0.80;;;8.10;83.00;;;;;;5073321;28;20419;-68
2020/12/24 11:06:47;;;;;;;1.85;0.60;;;8.00;83.20;;;;;;5050920;28;20450;-68
2020/12/24 11:09:14;;;;;;;2.42;0.70;;;8.00;82.70;;;;;;5055526;28;20435;-68
2020/12/24 11:11:41;;;;;;;2.70;0.68;;;8.00;82.80;;;;;;5069634;28;20412;-69
2020/12/24 11:14:10;;;;;;;3.45;0.70;;;8.00;83.00;;;;;;5054951;28;20480;-68
2020/12/24 11:16:37;;;;;;;1.63;0.80;;;8.10;82.60;;;;;;5073327;28;20403;-68
2020/12/24 11:19:04;;;;;;;2.13;0.85;;;8.00;83.70;;;;;;5047730;28;20904;-68
2020/12/24 11:21:35;;;;;;;2.90;0.90;;;8.00;83.10;;;;;;5054568;28;20430;-68
2020/12/24 11:24:06;;;;;;;1.10;0.80;;;7.90;83.00;;;;;;5057032;28;20459;-68
2020/12/24 11:26:37;;;;;;;1.80;0.88;;;8.00;83.00;;;;;;5053201;28;20413;-68
2020/12/24 11:29:09;;;;;;;2.80;0.90;;;8.00;82.30;;;;;;5051302;28;20431;-68
2020/12/24 11:31:37;;;;;;;1.73;0.80;;;8.00;82.30;;;;;;5072779;28;20492;-68
2020/12/24 11:34:05;;;;;;;1.60;0.80;;;8.10;82.50;;;;;;5047964;28;20939;-68
2020/12/24 11:36:34;;;;;;;1.55;0.77;;;8.10;81.80;;;;;;5053016;28;20413;-68
2020/12/24 11:39:06;;;;;;;1.70;0.60;;;8.20;80.40;;;;;;5059184;28;20891;-68
2020/12/24 11:41:34;;;;;;;2.20;0.75;;;8.30;80.70;;;;;;5072450;28;20396;-68
2020/12/24 11:44:01;;;;;;;2.75;0.70;;;8.20;79.60;;;;;;5068937;28;20491;-68
2020/12/24 11:46:30;;;;;;;3.45;0.52;;;8.30;80.00;;;;;;5071401;28;20454;-68
2020/12/24 11:49:00;;;;;;;2.03;0.60;;;8.30;80.70;;;;;;5050884;28;20844;-68
2020/12/24 11:51:27;;;;;;;3.70;0.73;;;8.30;81.10;;;;;;5072505;28;20844;-68
2020/12/24 11:53:53;;;;;;;2.33;0.80;;;8.30;80.10;;;;;;5057330;28;20413;-69
2020/12/24 11:56:22;;;;;;;1.97;0.60;;;8.30;80.60;;;;;;5071456;28;21103;-68
2020/12/24 11:58:51;;;;;;;1.23;0.70;;;8.20;80.50;;;;;;5072205;28;20497;-68
2020/12/24 12:01:22;;;;;;;1.55;0.70;;;8.20;80.70;;;;;;5068936;28;20412;-68
2020/12/24 12:03:52;;;;;;;2.45;0.95;;;8.30;79.90;;;;;;5072514;28;20408;-68
2020/12/24 12:06:21;;;;;;;2.72;0.88;;;8.30;80.80;;;;;;5050570;28;20852;-69
2020/12/24 12:08:51;;;;;;;3.47;1.10;;;8.30;79.80;;;;;;5054694;28;20416;-68
2020/12/24 12:11:19;;;;;;;3.05;1.17;;;8.40;79.50;;;;;;5068264;28;20709;-68
2020/12/24 12:13:49;;;;;;;2.60;1.00;;;8.50;79.00;;;;;;5054331;28;20485;-68
2020/12/24 12:16:22;;;;;;;3.22;1.00;;;8.50;79.40;;;;;;5067649;28;20513;-68
2020/12/24 12:18:49;;;;;;;3.15;1.02;;;8.50;79.30;;;;;;5070865;28;20604;-68
2020/12/24 12:21:19;;;;;;;2.80;1.10;;;8.60;78.50;;;;;;5067910;28;20433;-68
2020/12/24 12:23:45;;;;;;;1.73;1.00;;;8.60;77.90;;;;;;5053901;28;20477;-69
2020/12/24 12:26:13;;;;;;;2.43;1.00;;;8.60;77.40;;;;;;5050015;28;20999;-68
2020/12/24 12:28:43;;;;;;;1.30;0.88;;;8.60;77.50;;;;;;5054315;28;20416;-69
2020/12/24 12:31:21;;;;;;;2.13;0.80;;;8.50;77.10;;;;;;5067827;28;20415;-68
2020/12/24 12:33:48;;;;;;;2.38;1.00;;;8.60;77.20;;;;;;5071748;28;20468;-68
2020/12/24 12:36:18;;;;;;;1.00;0.57;;;8.60;77.50;;;;;;5050750;28;20507;-68
2020/12/24 12:38:48;;;;;;;3.17;0.80;;;8.60;77.20;;;;;;5071693;28;20699;-68
2020/12/24 12:41:17;;;;;;;1.65;0.68;;;8.60;77.90;;;;;;5071795;28;20400;-68
2020/12/24 12:43:44;;;;;;;2.55;0.73;;;8.60;77.50;;;;;;5067098;28;20466;-68
2020/12/24 12:46:10;;;;;;;2.13;0.77;;;8.60;78.00;;;;;;5065531;28;21120;-68
2020/12/24 12:48:37;;;;;;;5.38;3.80;;;8.60;78.90;;;;;;5063825;28;20497;-68
2020/12/24 12:51:06;;;;;;;2.88;1.00;;;8.60;79.20;;;;;;5071453;28;20469;-69
2020/12/24 12:53:32;;;;;;;2.45;1.20;;;8.80;77.70;;;;;;5048402;28;20801;-68
2020/12/24 12:56:01;;;;;;;1.85;0.70;;;8.80;79.70;;;;;;5071208;28;21164;-68
2020/12/24 12:58:30;;;;;;;2.63;0.88;;;8.80;79.30;;;;;;5050077;28;21260;-68
2020/12/24 13:00:58;;;;;;;1.30;0.60;;;8.70;80.00;;;;;;5061088;28;20420;-68
2020/12/24 13:03:27;;;;;;;4.22;0.70;;;8.70;79.70;;;;;;5067563;28;20464;-68
2020/12/24 13:05:56;;;;;;;1.20;0.60;;;8.60;81.00;;;;;;5070807;28;20790;-68